Time;durP1;ratioP1;P1;durP2;ratioP2;P2;SDS_P1;SDS_P2;PMS_P1;PMS_P2;Temp;Humidity;BMP_temperature;BMP_pressure;BME280_temperature;BME280_humidity;BME280_pressure;Samples;Min_cycle;Max_cycle;Signal;HPM_P1;HPM_P2
2023/04/09 00:02:15;;;;;;;1999.90;999.90;;;;;;;5.27;100.00;98367.47;5157920;28;20015;-82
2023/04/09 00:04:40;;;;;;;1999.90;999.90;;;;;;;5.05;100.00;98364.72;5157943;28;20056;-83
2023/04/09 00:07:05;;;;;;;1999.90;999.90;;;;;;;5.16;100.00;98368.41;5160688;27;20011;-82
2023/04/09 00:09:31;;;;;;;1999.90;999.90;;;;;;;4.98;100.00;98371.41;5162041;27;20042;-83
2023/04/09 00:11:57;;;;;;;1999.90;999.90;;;;;;;5.03;100.00;98369.59;5162338;27;20031;-87
2023/04/09 00:14:23;;;;;;;1999.90;999.90;;;;;;;5.09;100.00;98356.91;5162251;27;20036;-83
2023/04/09 00:16:48;;;;;;;1999.90;999.90;;;;;;;5.09;100.00;98360.44;5162346;27;20015;-84
2023/04/09 00:19:15;;;;;;;1999.90;999.90;;;;;;;5.10;100.00;98361.28;5161887;27;20031;-83
2023/04/09 00:21:41;;;;;;;1999.90;999.90;;;;;;;4.91;100.00;98365.34;5162190;27;20011;-82
2023/04/09 00:24:07;;;;;;;1999.90;999.90;;;;;;;5.10;100.00;98361.28;5162300;27;20010;-80
2023/04/09 00:26:32;;;;;;;1999.90;999.90;;;;;;;5.12;100.00;98368.09;5162423;27;20038;-84
2023/04/09 00:28:58;;;;;;;1999.90;999.90;;;;;;;5.02;100.00;98373.34;5147255;27;20023;-86
2023/04/09 00:31:23;;;;;;;1999.90;999.90;;;;;;;5.10;100.00;98366.69;5147774;27;20034;-85
2023/04/09 00:33:48;;;;;;;1999.90;999.90;;;;;;;5.03;100.00;98361.44;5156975;27;20048;-86
2023/04/09 00:36:14;;;;;;;1999.90;999.90;;;;;;;5.18;100.00;98350.81;5140096;27;20031;-84
2023/04/09 00:38:39;;;;;;;1999.90;999.90;;;;;;;5.27;100.00;98372.88;5158611;27;20054;-83
2023/04/09 00:41:05;;;;;;;1999.90;999.90;;;;;;;5.26;100.00;98369.34;5156406;27;20027;-85
2023/04/09 00:43:30;;;;;;;1999.90;999.90;;;;;;;5.21;100.00;98372.00;5155301;27;20030;-79
2023/04/09 00:45:57;;;;;;;1999.90;999.90;;;;;;;5.29;100.00;98366.13;5156742;27;20050;-84
2023/04/09 00:48:22;;;;;;;1999.90;999.90;;;;;;;5.23;100.00;98363.63;5156503;27;20026;-84
2023/04/09 00:50:47;;;;;;;1999.90;999.90;;;;;;;5.20;100.00;98375.78;5155983;27;20019;-87
2023/04/09 00:53:13;;;;;;;1999.90;999.90;;;;;;;5.26;100.00;98369.34;5157012;27;20012;-88
2023/04/09 00:55:40;;;;;;;1999.90;999.90;;;;;;;5.47;100.00;98375.88;5159252;27;20003;-88
2023/04/09 00:58:06;;;;;;;1999.90;999.90;;;;;;;5.35;100.00;98373.28;5160111;27;20082;-87
2023/04/09 01:00:31;;;;;;;1999.90;999.90;;;;;;;5.17;100.00;98368.13;5159830;27;20019;-86
2023/04/09 01:02:58;;;;;;;1999.90;999.90;;;;;;;5.30;100.00;98369.66;5158457;27;20011;-87
2023/04/09 01:05:46;;;;;;;1999.90;999.90;;;;;;;5.36;100.00;98368.66;5158913;27;20027;-88
2023/04/09 01:08:45;;;;;;;1999.90;999.90;;;;;;;5.40;100.00;98370.63;5156751;27;20043;-87
2023/04/09 01:11:26;;;;;;;1999.90;999.90;;;;;;;5.55;100.00;98377.31;5157539;27;20039;-86
2023/04/09 01:14:02;;;;;;;1999.90;999.90;;;;;;;5.41;100.00;98376.88;5157153;27;20384;-84
2023/04/09 01:16:31;;;;;;;1999.90;999.90;;;;;;;5.24;100.00;98376.94;5155983;27;20110;-83
2023/04/09 01:19:27;;;;;;;1999.90;999.90;;;;;;;5.24;100.00;98379.63;5154375;27;20023;-85
2023/04/09 01:21:56;;;;;;;1999.90;999.90;;;;;;;5.18;100.00;98367.09;5136103;27;20451;-86
2023/04/09 01:24:39;;;;;;;1999.90;999.90;;;;;;;5.28;100.00;98372.66;5156938;27;20031;-86
2023/04/09 01:27:06;;;;;;;1999.90;999.90;;;;;;;5.26;100.00;98363.94;5158033;27;20011;-85
2023/04/09 01:29:40;;;;;;;1999.90;999.90;;;;;;;5.34;100.00;98365.38;5159628;27;20019;-86
2023/04/09 01:32:07;;;;;;;1999.90;999.90;;;;;;;5.14;100.00;98371.34;5159296;27;20096;-84
2023/04/09 01:34:37;;;;;;;1999.90;999.90;;;;;;;4.96;100.00;98365.41;5157380;27;20023;-84
2023/04/09 01:37:03;;;;;;;1999.90;999.90;;;;;;;5.03;100.00;98372.28;5159393;27;20011;-86
2023/04/09 01:39:28;;;;;;;1999.90;999.90;;;;;;;5.09;100.00;98371.28;5158657;27;20022;-86
2023/04/09 01:41:55;;;;;;;1999.90;999.90;;;;;;;5.06;100.00;98379.94;5159654;27;20031;-81
2023/04/09 01:44:22;;;;;;;1999.90;999.90;;;;;;;4.97;100.00;98372.47;5159699;27;20023;-84
2023/04/09 01:46:49;;;;;;;1999.90;999.90;;;;;;;5.01;100.00;98363.56;5159221;27;20030;-83
2023/04/09 01:49:15;;;;;;;1999.90;999.90;;;;;;;5.03;100.00;98375.00;5159605;27;20010;-86
2023/04/09 01:51:42;;;;;;;1999.90;999.90;;;;;;;4.89;100.00;98375.63;5159680;27;20091;-84
2023/04/09 01:54:07;;;;;;;1999.90;999.90;;;;;;;5.06;100.00;98376.41;5159124;27;20046;-85
2023/04/09 01:56:45;;;;;;;1999.90;999.90;;;;;;;4.96;100.00;98378.94;5152196;27;20035;-86
2023/04/09 01:59:11;;;;;;;1999.90;999.90;;;;;;;4.84;100.00;98381.75;5152446;27;20043;-86
2023/04/09 02:01:44;;;;;;;1999.90;999.90;;;;;;;4.84;100.00;98381.75;5151829;27;20038;-86
2023/04/09 02:04:18;;;;;;;1999.90;999.90;;;;;;;4.81;100.00;98372.25;5153653;27;20037;-84
2023/04/09 02:07:06;;;;;;;1999.90;999.90;;;;;;;4.83;100.00;98371.97;5152516;27;20038;-84
2023/04/09 02:09:35;;;;;;;1999.90;999.90;;;;;;;4.89;100.00;98373.69;5122664;27;20054;-85
2023/04/09 02:12:04;;;;;;;1999.90;999.90;;;;;;;4.69;100.00;98378.81;5136387;27;20023;-85
2023/04/09 02:14:31;;;;;;;1999.90;999.90;;;;;;;4.66;100.00;98365.78;5155099;27;20027;-85
2023/04/09 02:16:57;;;;;;;1999.90;999.90;;;;;;;4.80;100.00;98369.78;5152458;27;20042;-86
2023/04/09 02:19:22;;;;;;;1999.90;999.90;;;;;;;4.77;100.00;98370.28;5152544;27;20031;-86
2023/04/09 02:21:48;;;;;;;1999.90;999.90;;;;;;;4.70;100.00;98365.00;5155635;27;20003;-85
2023/04/09 02:24:13;;;;;;;1999.90;999.90;;;;;;;4.74;100.00;98373.47;5154662;27;20023;-83
2023/04/09 02:26:38;;;;;;;1999.90;999.90;;;;;;;4.66;100.00;98374.72;5153712;27;20027;-87
2023/04/09 02:29:04;;;;;;;1999.90;999.90;;;;;;;4.78;100.00;98367.31;5154092;27;20028;-87
2023/04/09 02:31:29;;;;;;;1999.90;999.90;;;;;;;4.89;100.00;98373.69;5155954;27;20075;-86
2023/04/09 02:33:54;;;;;;;1999.90;999.90;;;;;;;4.75;100.00;98369.72;5155510;27;20031;-87
2023/04/09 02:36:20;;;;;;;1999.90;999.90;;;;;;;4.76;100.00;98368.66;5153768;27;20024;-87
2023/04/09 02:38:45;;;;;;;1999.90;999.90;;;;;;;4.76;100.00;98374.06;5155768;27;20023;-86
2023/04/09 02:41:10;;;;;;;1999.90;999.90;;;;;;;4.74;100.00;98360.75;5156126;27;20031;-84
2023/04/09 02:43:36;;;;;;;1999.90;999.90;;;;;;;4.65;100.00;98364.13;5156245;27;20075;-83
2023/04/09 02:46:01;;;;;;;1999.90;999.90;;;;;;;4.66;100.00;98368.47;5157255;27;20023;-84
2023/04/09 02:48:27;;;;;;;1999.90;999.90;;;;;;;4.66;100.00;98365.78;5156545;27;20019;-86
2023/04/09 02:50:52;;;;;;;1999.90;999.90;;;;;;;4.57;100.00;98370.78;5137481;27;20034;-85
2023/04/09 02:53:17;;;;;;;1999.90;999.90;;;;;;;4.70;100.00;98367.72;5153719;27;20033;-84
2023/04/09 02:55:43;;;;;;;1999.90;999.90;;;;;;;4.78;100.00;98366.50;5154165;27;20059;-85
2023/04/09 02:58:08;;;;;;;1999.90;999.90;;;;;;;4.63;100.00;98358.97;5154520;27;20023;-85
2023/04/09 03:00:33;;;;;;;1999.90;999.90;;;;;;;4.76;100.00;98369.44;5153172;27;20023;-88
2023/04/09 03:02:59;;;;;;;1999.90;999.90;;;;;;;4.91;100.00;98376.19;5151474;27;20019;-86
2023/04/09 03:05:24;;;;;;;1999.90;999.90;;;;;;;4.75;100.00;98367.00;5150428;27;20078;-87
2023/04/09 03:07:50;;;;;;;1999.90;999.90;;;;;;;4.75;100.00;98364.28;5138285;27;20057;-86
2023/04/09 03:10:15;;;;;;;1999.90;999.90;;;;;;;4.86;100.00;98364.19;5156209;27;20049;-86
2023/04/09 03:12:43;;;;;;;1999.90;999.90;;;;;;;4.82;100.00;98362.22;5150061;27;20068;-89
2023/04/09 03:15:10;;;;;;;1999.90;999.90;;;;;;;4.83;100.00;98359.25;5148364;27;20023;-86
2023/04/09 03:17:35;;;;;;;1999.90;999.90;;;;;;;4.76;100.00;98357.81;5153585;27;20011;-85
2023/04/09 03:20:01;;;;;;;1999.90;999.90;;;;;;;4.82;100.00;98354.09;5145072;27;20399;-84
2023/04/09 03:22:26;;;;;;;1999.90;999.90;;;;;;;4.86;100.00;98357.94;5146308;27;20034;-84
2023/04/09 03:24:52;;;;;;;1999.90;999.90;;;;;;;4.87;100.00;98356.88;5151492;27;20015;-84
2023/04/09 03:27:17;;;;;;;1999.90;999.90;;;;;;;4.70;100.00;98353.34;5150946;27;20034;-89
2023/04/09 03:29:42;;;;;;;1999.90;999.90;;;;;;;4.79;100.00;98360.03;5152557;27;20026;-84
2023/04/09 03:32:14;;;;;;;1999.90;999.90;;;;;;;4.69;100.00;98351.72;5151676;27;20023;-84
2023/04/09 03:34:39;;;;;;;1999.90;999.90;;;;;;;4.43;100.00;98328.84;5131627;27;20383;-84
2023/04/09 03:37:05;;;;;;;1999.90;999.90;;;;;;;4.50;100.00;98361.19;5150274;27;20027;-84
2023/04/09 03:39:30;;;;;;;1999.90;999.90;;;;;;;4.44;100.00;98364.88;5152118;28;20126;-85
2023/04/09 03:41:57;;;;;;;1999.90;999.90;;;;;;;4.49;100.00;98357.66;5152864;27;20090;-87
2023/04/09 03:44:22;;;;;;;1999.90;999.90;;;;;;;4.46;100.00;98349.19;5150711;28;20058;-83
2023/04/09 03:46:48;;;;;;;1999.90;999.90;;;;;;;4.70;100.00;98353.34;5145734;27;20019;-86
2023/04/09 03:49:13;;;;;;;1999.90;999.90;;;;;;;4.48;100.00;98356.00;5145396;27;20023;-85
2023/04/09 03:51:38;;;;;;;1999.90;999.90;;;;;;;4.53;100.00;98352.56;5144728;28;20015;-87
2023/04/09 03:54:04;;;;;;;1999.90;999.90;;;;;;;4.48;100.00;98363.31;5146468;27;20023;-88
2023/04/09 03:56:29;;;;;;;1999.90;999.90;;;;;;;4.50;100.00;98364.72;5126347;28;20047;-83
2023/04/09 03:58:55;;;;;;;1999.90;999.90;;;;;;;4.45;100.00;98361.09;5144367;27;20028;-83
2023/04/09 04:01:20;;;;;;;1999.90;999.90;;;;;;;4.47;100.00;98367.09;5145629;27;20030;-85
2023/04/09 04:03:45;;;;;;;1999.90;999.90;;;;;;;4.51;100.00;98365.53;5148380;28;20023;-88
2023/04/09 04:06:10;;;;;;;1999.90;999.90;;;;;;;4.55;100.00;98356.66;5145813;28;20477;-86
2023/04/09 04:08:36;;;;;;;1999.90;999.90;;;;;;;4.48;100.00;98360.63;5143414;28;20039;-87
2023/04/09 04:11:04;;;;;;;1999.90;999.90;;;;;;;4.67;100.00;98365.50;5145275;27;20019;-87
2023/04/09 04:13:30;;;;;;;1999.90;999.90;;;;;;;4.60;100.00;98361.34;5142984;28;20397;-82
2023/04/09 04:15:55;;;;;;;1999.90;999.90;;;;;;;4.53;100.00;98368.81;5144631;28;20031;-88
2023/04/09 04:18:20;;;;;;;1999.90;999.90;;;;;;;4.58;100.00;98380.53;5143976;28;20023;-85
2023/04/09 04:20:46;;;;;;;1999.90;999.90;;;;;;;4.58;100.00;98367.00;5142470;28;20065;-86
2023/04/09 04:23:11;;;;;;;1999.90;999.90;;;;;;;4.59;100.00;98367.81;5147449;28;20045;-83
2023/04/09 04:25:40;;;;;;;1999.90;999.90;;;;;;;4.49;100.00;98373.91;5150623;28;20084;-84
2023/04/09 04:28:05;;;;;;;1999.90;999.90;;;;;;;4.49;100.00;98362.22;5152085;28;20019;-86
2023/04/09 04:30:30;;;;;;;1999.90;999.90;;;;;;;4.73;100.00;98377.28;5149561;28;20638;-86
2023/04/09 04:32:56;;;;;;;1999.90;999.90;;;;;;;4.74;100.00;98377.00;5150649;28;20091;-84
2023/04/09 04:35:21;;;;;;;1999.90;999.90;;;;;;;4.67;100.00;98370.09;5150126;28;20067;-86
2023/04/09 04:37:49;;;;;;;1999.90;999.90;;;;;;;4.69;100.00;98373.41;5148684;28;20061;-86
2023/04/09 04:40:15;;;;;;;1999.90;999.90;;;;;;;4.60;100.00;98383.03;5149698;28;20023;-84
2023/04/09 04:42:40;;;;;;;1999.90;999.90;;;;;;;4.63;100.00;98368.97;5140780;28;20556;-82
2023/04/09 04:45:06;;;;;;;1999.90;999.90;;;;;;;4.53;100.00;98375.06;5138984;27;20083;-82
2023/04/09 04:47:31;;;;;;;1999.90;999.90;;;;;;;4.61;100.00;98379.22;5136718;28;20028;-80
2023/04/09 04:49:57;;;;;;;1999.90;999.90;;;;;;;4.48;100.00;98372.25;5144623;28;20035;-84
2023/04/09 04:52:22;;;;;;;1999.90;999.90;;;;;;;4.51;100.00;98370.97;5149532;27;20019;-85
2023/04/09 04:54:47;;;;;;;1999.90;999.90;;;;;;;4.59;100.00;98375.94;5147105;27;20030;-82
2023/04/09 04:57:13;;;;;;;1999.90;999.90;;;;;;;4.72;100.00;98379.16;5120408;27;20046;-76
2023/04/09 04:59:39;;;;;;;1999.90;999.90;;;;;;;4.70;100.00;98377.75;5134444;27;20118;-75
2023/04/09 05:02:07;;;;;;;1999.90;999.90;;;;;;;4.49;100.00;98375.78;5134512;27;20023;-75
2023/04/09 05:04:33;;;;;;;1999.90;999.90;;;;;;;4.59;100.00;98375.94;5121237;27;20032;-74
2023/04/09 05:06:58;;;;;;;1999.90;999.90;;;;;;;4.58;100.00;98383.25;5115166;28;20445;-75
2023/04/09 05:09:24;;;;;;;1999.90;999.90;;;;;;;4.54;100.00;98386.72;5114525;28;20044;-75
2023/04/09 05:11:49;;;;;;;1999.90;999.90;;;;;;;4.55;100.00;98385.63;5114222;28;20043;-75
2023/04/09 05:14:14;;;;;;;1999.90;999.90;;;;;;;4.56;100.00;98381.84;5117270;28;20023;-75
2023/04/09 05:16:40;;;;;;;1999.90;999.90;;;;;;;4.50;100.00;98389.09;5116104;28;20024;-75
2023/04/09 05:19:05;;;;;;;1999.90;999.90;;;;;;;4.62;100.00;98389.81;5115100;28;20495;-75
2023/04/09 05:21:31;;;;;;;1999.90;999.90;;;;;;;4.76;100.00;98390.31;5114705;28;20096;-76
2023/04/09 05:23:57;;;;;;;1999.90;999.90;;;;;;;4.60;100.00;98394.69;5113614;28;20019;-75
2023/04/09 05:26:22;;;;;;;1999.90;999.90;;;;;;;4.62;100.00;98395.25;5112939;28;20466;-75
2023/04/09 05:28:48;;;;;;;1999.90;999.90;;;;;;;4.79;100.00;98393.34;5113097;28;20118;-75
2023/04/09 05:31:14;;;;;;;1999.90;999.90;;;;;;;4.87;100.00;98400.25;5095284;28;20030;-75
2023/04/09 05:33:40;;;;;;;1999.90;999.90;;;;;;;4.97;100.00;98392.28;5113429;28;20051;-76
2023/04/09 05:36:06;;;;;;;1999.90;999.90;;;;;;;5.13;100.00;98407.69;5112934;28;20071;-75
2023/04/09 05:38:31;;;;;;;1999.90;999.90;;;;;;;5.04;100.00;98403.75;5113580;28;20019;-76
2023/04/09 05:40:56;;;;;;;1999.90;999.90;;;;;;;5.13;100.00;98409.56;5128774;27;20039;-76
2023/04/09 05:43:22;;;;;;;1999.90;999.90;;;;;;;5.24;100.00;98405.94;5135755;27;20472;-77
2023/04/09 05:45:47;;;;;;;1999.90;999.90;;;;;;;5.24;100.00;98409.47;5138980;27;20059;-77
2023/04/09 05:48:12;;;;;;;1999.90;999.90;;;;;;;5.38;100.00;98418.91;5139959;27;20039;-77
2023/04/09 05:50:38;;;;;;;1999.90;999.90;;;;;;;5.33;100.00;98420.69;5133601;27;20019;-77
2023/04/09 05:53:03;;;;;;;1999.90;999.90;;;;;;;5.44;100.00;98414.34;5133678;27;20072;-75
2023/04/09 05:55:31;;;;;;;1999.90;999.90;;;;;;;5.64;100.00;98424.66;5132809;27;20041;-75
2023/04/09 05:57:56;;;;;;;1999.90;999.90;;;;;;;5.66;100.00;98420.63;5133389;27;20063;-75
2023/04/09 06:00:21;;;;;;;1999.90;999.90;;;;;;;5.75;100.00;98426.41;5132997;27;20102;-75
2023/04/09 06:02:47;;;;;;;1999.90;999.90;;;;;;;5.64;100.00;98430.88;5133068;27;20023;-76
2023/04/09 06:05:12;;;;;;;1999.90;999.90;;;;;;;5.65;100.00;98429.81;5132249;27;20046;-75
2023/04/09 06:07:38;;;;;;;1999.90;999.90;;;;;;;5.66;100.00;98425.22;5133049;27;20051;-75
2023/04/09 06:10:03;;;;;;;1999.90;999.90;;;;;;;5.65;100.00;98426.28;5132562;27;20058;-75
2023/04/09 06:12:29;;;;;;;1999.90;999.90;;;;;;;5.37;100.00;98424.56;5143145;27;20044;-85
2023/04/09 06:14:54;;;;;;;1999.90;999.90;;;;;;;5.27;100.00;98425.22;5122737;27;20091;-83
2023/04/09 06:17:19;;;;;;;1999.90;999.90;;;;;;;5.59;100.00;98433.53;5143291;27;20027;-86
2023/04/09 06:19:45;;;;;;;1999.90;999.90;;;;;;;5.65;100.00;98421.69;5146025;27;20019;-86
2023/04/09 06:22:10;;;;;;;1999.90;999.90;;;;;;;5.47;100.00;98415.75;5146710;27;20027;-90
2023/04/09 06:24:36;;;;;;;1999.90;999.90;;;;;;;5.64;100.00;98430.09;5145758;27;20039;-86
2023/04/09 06:27:02;;;;;;;1999.90;999.90;;;;;;;5.98;100.00;98426.19;5145479;27;20037;-91
2023/04/09 06:29:27;;;;;;;1999.90;999.90;;;;;;;6.21;100.00;98430.50;5149894;27;20031;-89
2023/04/09 06:31:52;;;;;;;1999.90;999.90;;;;;;;6.41;100.00;98436.97;5144878;27;20027;-83
2023/04/09 06:34:18;;;;;;;1999.90;999.90;;;;;;;6.49;100.00;98438.41;5140986;27;20027;-82
2023/04/09 06:36:43;;;;;;;1999.90;999.90;;;;;;;6.36;100.00;98427.94;5140951;27;20026;-78
2023/04/09 06:39:09;;;;;;;1999.90;999.90;;;;;;;6.28;100.00;98428.41;5141769;27;20027;-86
2023/04/09 06:41:34;;;;;;;1999.90;999.90;;;;;;;6.34;100.00;98436.34;5140914;27;20102;-86
2023/04/09 06:44:00;;;;;;;1999.90;999.90;;;;;;;6.37;100.00;98429.59;5138759;27;20034;-86
2023/04/09 06:46:26;;;;;;;1999.90;999.90;;;;;;;6.38;100.00;98442.94;5138112;27;20034;-86
2023/04/09 06:48:52;;;;;;;1999.90;999.90;;;;;;;6.23;100.00;98434.63;5120459;27;20028;-84
2023/04/09 06:51:17;;;;;;;1999.90;999.90;;;;;;;6.21;100.00;98430.50;5140690;27;20030;-88
2023/04/09 06:53:43;;;;;;;1999.90;999.90;;;;;;;6.23;100.00;98434.63;5141711;27;20023;-87
2023/04/09 06:56:08;;;;;;;1999.90;999.90;;;;;;;6.17;100.00;98441.03;5123288;27;20116;-86
2023/04/09 06:58:33;;;;;;;1999.90;999.90;;;;;;;6.38;100.00;98447.53;5140523;27;20090;-86
2023/04/09 07:00:59;;;;;;;1999.90;999.90;;;;;;;6.34;100.00;98440.97;5141347;27;20050;-84
2023/04/09 07:03:26;;;;;;;1999.90;999.90;;;;;;;6.32;100.00;98435.81;5143446;27;20023;-88
2023/04/09 07:05:53;;;;;;;1999.90;999.90;;;;;;;6.72;100.00;98443.50;5140019;27;20035;-86
2023/04/09 07:08:18;;;;;;;1999.90;999.90;;;;;;;6.77;100.00;98443.53;5142935;27;20047;-85
2023/04/09 07:10:46;;;;;;;1999.90;999.90;;;;;;;6.96;100.00;98438.53;5139562;27;20056;-88
2023/04/09 07:13:11;;;;;;;1999.90;999.90;;;;;;;6.88;100.00;98453.44;5141641;27;20052;-82
2023/04/09 07:15:37;;;;;;;1999.90;999.90;;;;;;;7.01;100.00;98449.47;5141421;27;20027;-86
2023/04/09 07:18:02;;;;;;;1999.90;999.90;;;;;;;6.95;100.00;98445.06;5139232;27;20022;-79
2023/04/09 07:20:27;;;;;;;1999.90;999.90;;;;;;;6.99;100.00;98448.91;5140832;27;20035;-85
2023/04/09 07:22:53;;;;;;;1999.90;999.90;;;;;;;7.12;100.00;98459.34;5139298;27;20497;-86
2023/04/09 07:25:18;;;;;;;1999.90;999.90;;;;;;;7.11;100.00;98460.41;5138511;27;20035;-86
2023/04/09 07:27:43;;;;;;;1999.90;999.90;;;;;;;7.18;100.00;98462.91;5138662;27;20042;-88
2023/04/09 07:30:09;;;;;;;1999.90;999.90;;;;;;;7.34;100.00;98462.75;5139629;27;20015;-83
2023/04/09 07:32:35;;;;;;;1999.90;999.90;;;;;;;7.63;100.00;98462.41;5139282;27;20019;-87
2023/04/09 07:35:01;;;;;;;1999.90;999.90;;;;;;;7.55;100.00;98459.09;5140943;27;20100;-82
2023/04/09 07:37:27;;;;;;;1999.90;999.90;;;;;;;7.34;100.00;98443.72;5120579;28;20031;-86
2023/04/09 07:39:52;;;;;;;1999.90;999.90;;;;;;;7.21;100.00;98463.22;5139065;27;20042;-89
2023/04/09 07:42:17;;;;;;;1999.90;999.90;;;;;;;7.26;100.00;98459.72;5140211;28;20027;-86
2023/04/09 07:44:43;;;;;;;1999.90;999.90;;;;;;;7.38;100.00;98463.06;5141184;28;20132;-84
2023/04/09 07:47:10;;;;;;;1999.90;999.90;;;;;;;7.62;100.00;98468.91;5136383;28;20022;-89
2023/04/09 07:49:36;;;;;;;1999.90;999.90;;;;;;;7.81;100.00;98459.22;5134836;28;20030;-86
2023/04/09 07:52:02;;;;;;;1999.90;999.90;;;;;;;6.89;100.00;98470.59;5140895;28;20087;-80
2023/04/09 07:54:27;;;;;;;1999.90;999.90;;;;;;;7.38;100.00;98465.78;5135485;28;20077;-83
2023/04/09 07:56:53;;;;;;;1999.90;999.90;;;;;;;7.89;100.00;98467.69;5129529;28;20087;-77
2023/04/09 07:59:18;;;;;;;1999.90;999.90;;;;;;;8.36;100.00;98469.56;5130843;28;20023;-78
2023/04/09 08:01:44;;;;;;;1999.90;999.90;;;;;;;8.49;100.00;98466.31;5129638;28;20053;-76
2023/04/09 08:04:11;;;;;;;1999.90;999.90;;;;;;;8.22;100.00;98474.66;5130508;28;20091;-78
2023/04/09 08:06:37;;;;;;;1999.90;999.90;;;;;;;8.09;100.00;98475.16;5132512;27;20027;-85
2023/04/09 08:09:02;;;;;;;1999.90;999.90;;;;;;;8.34;100.00;98472.53;5100454;28;20066;-83
2023/04/09 08:11:28;;;;;;;1999.90;999.90;;;;;;;8.43;100.00;98484.56;5094711;28;20043;-83
2023/04/09 08:13:54;;;;;;;1999.90;999.90;;;;;;;8.07;100.00;98489.06;5096928;28;20024;-84
2023/04/09 08:16:23;;;;;;;1999.90;999.90;;;;;;;7.90;100.00;98490.31;5082982;28;20030;-77
2023/04/09 08:18:51;;;;;;;1999.90;999.90;;;;;;;7.48;100.00;98493.06;5105509;28;20053;-76
2023/04/09 08:21:17;;;;;;;1999.90;999.90;;;;;;;7.44;100.00;98489.22;5108936;28;20732;-75
2023/04/09 08:23:42;;;;;;;1999.90;999.90;;;;;;;7.24;100.00;98486.34;5111038;28;20372;-75
2023/04/09 08:26:08;;;;;;;1999.90;999.90;;;;;;;7.28;100.00;98484.75;5103264;28;20032;-76
2023/04/09 08:28:33;;;;;;;1999.90;999.90;;;;;;;7.50;100.00;98489.00;5093577;28;20489;-76
2023/04/09 08:31:10;;;;;;;1999.90;999.90;;;;;;;7.80;100.00;98476.66;5099299;28;20036;-74
2023/04/09 08:33:35;;;;;;;1999.90;999.90;;;;;;;8.16;100.00;98488.53;5104545;28;20107;-87
2023/04/09 08:36:00;;;;;;;1999.90;999.90;;;;;;;8.26;100.00;98481.22;5106599;28;20119;-81
2023/04/09 08:38:26;;;;;;;1999.90;999.90;;;;;;;8.68;100.00;98483.78;5106240;28;20114;-85
2023/04/09 08:40:51;;;;;;;1999.90;999.90;;;;;;;8.77;100.00;98489.56;5115515;28;20476;-85
2023/04/09 08:43:21;;;;;;;1999.90;999.90;;;;;;;8.96;100.00;98496.94;5112996;28;20019;-84
2023/04/09 08:45:47;;;;;;;1999.90;999.90;;;;;;;9.14;100.00;98495.59;5113530;28;20040;-84
2023/04/09 08:48:12;;;;;;;1999.90;999.90;;;;;;;8.89;100.00;98490.94;5124168;28;20112;-88
2023/04/09 08:50:39;;;;;;;1999.90;999.90;;;;;;;9.49;100.00;98494.75;5109452;28;20042;-80
2023/04/09 08:53:06;;;;;;;1999.90;999.90;;;;;;;9.57;100.00;98488.72;5101927;28;20066;-90
2023/04/09 08:55:36;;;;;;;1999.90;999.90;;;;;;;10.55;100.00;98491.72;5111011;28;20060;-84
2023/04/09 08:58:09;;;;;;;1999.90;999.90;;;;;;;9.68;100.00;98499.34;5102549;28;20023;-78
2023/04/09 09:00:35;;;;;;;1999.90;999.90;;;;;;;9.48;100.00;98510.31;5089443;28;20024;-78
2023/04/09 09:03:07;;;;;;;1999.90;999.90;;;;;;;9.57;100.00;98505.13;5098019;28;20056;-89
2023/04/09 09:05:37;;;;;;;1999.90;999.90;;;;;;;9.99;100.00;98505.56;5100682;28;20477;-87
2023/04/09 09:08:02;;;;;;;1999.90;999.90;;;;;;;9.82;97.57;98509.72;5112959;27;20057;-82
2023/04/09 09:10:44;;;;;;;1999.90;999.90;;;;;;;9.43;95.48;98507.56;5137252;27;20134;-87
2023/04/09 09:13:25;;;;;;;1999.90;999.90;;;;;;;9.21;96.34;98504.31;5137807;27;20031;-83
2023/04/09 09:15:55;;;;;;;1999.90;999.90;;;;;;;9.28;95.26;98495.84;5135553;27;20080;-79
2023/04/09 09:18:41;;;;;;;1999.90;999.90;;;;;;;8.99;95.77;98510.03;5137657;27;20019;-82
2023/04/09 09:21:10;;;;;;;1999.90;999.90;;;;;;;8.96;98.40;98510.56;5130261;27;20027;-80
2023/04/09 09:23:35;;;;;;;1999.90;999.90;;;;;;;9.01;100.00;98498.84;5134756;27;20027;-84
2023/04/09 09:26:28;;;;;;;1999.90;999.90;;;;;;;8.20;100.00;98501.38;5147724;27;20087;-87
2023/04/09 09:28:57;;;;;;;1999.90;999.90;;;;;;;8.05;100.00;98488.47;5137332;27;20025;-87
2023/04/09 09:31:23;;;;;;;1999.90;999.90;;;;;;;8.76;100.00;98490.63;5139656;27;20015;-84
2023/04/09 09:33:50;;;;;;;1999.90;999.90;;;;;;;9.56;99.55;98492.53;5144756;27;20034;-88
2023/04/09 09:36:28;;;;;;;1999.90;999.90;;;;;;;10.70;88.40;98492.44;5139963;27;20023;-83
2023/04/09 09:38:56;;;;;;;1999.90;999.90;;;;;;;9.82;92.02;98496.06;5152201;27;20019;-88
2023/04/09 09:41:22;;;;;;;1999.90;999.90;;;;;;;9.83;91.43;98489.50;5131741;27;20023;-88
2023/04/09 09:43:48;;;;;;;1999.90;999.90;;;;;;;11.02;84.95;98491.97;5145963;27;20114;-84
2023/04/09 09:46:15;;;;;;;1999.90;999.90;;;;;;;11.46;82.20;98497.34;5136233;27;20483;-77
2023/04/09 09:48:41;;;;;;;1999.90;999.90;;;;;;;10.77;82.95;98488.56;5137234;27;20023;-87
2023/04/09 09:51:11;;;;;;;1999.90;999.90;;;;;;;11.29;82.53;98494.19;5140029;27;20023;-85
2023/04/09 09:53:38;;;;;;;1999.90;999.90;;;;;;;10.20;83.16;98484.50;5133481;27;20164;-83
2023/04/09 09:56:13;;;;;;;1999.90;999.90;;;;;;;10.61;83.46;98491.41;5117445;27;20095;-77
2023/04/09 09:58:55;;;;;;;1999.90;999.90;;;;;;;10.75;83.29;98491.56;5136871;27;20015;-76
2023/04/09 10:01:23;;;;;;;1999.90;999.90;;;;;;;10.32;83.11;98487.72;5138968;27;20031;-76
2023/04/09 10:03:50;;;;;;;1999.90;999.90;;;;;;;9.89;85.95;98491.94;5137561;27;20483;-79
2023/04/09 10:06:16;;;;;;;1999.90;999.90;;;;;;;9.63;88.82;98491.19;5134994;27;20019;-76
2023/04/09 10:08:41;;;;;;;1999.90;999.90;;;;;;;9.29;88.24;98484.66;5132734;27;20035;-76
2023/04/09 10:11:07;;;;;;;1999.90;999.90;;;;;;;9.31;88.65;98487.09;5136207;27;20083;-81
2023/04/09 10:13:36;;;;;;;1999.90;999.90;;;;;;;8.97;88.67;98484.94;5134749;27;20030;-85
2023/04/09 10:16:02;;;;;;;1999.90;999.90;;;;;;;8.91;92.06;98482.47;5137383;27;20027;-79
2023/04/09 10:18:29;;;;;;;1999.90;999.90;;;;;;;9.01;90.46;98483.31;5136339;27;20102;-74
2023/04/09 10:21:00;;;;;;;1999.90;999.90;;;;;;;8.92;93.37;98479.50;5133116;27;20039;-75
2023/04/09 10:23:40;;;;;;;1999.90;999.90;;;;;;;8.75;98.26;98478.91;5129441;27;20033;-74
2023/04/09 10:26:06;;;;;;;1999.90;999.90;;;;;;;8.54;100.00;98475.34;5129460;27;20030;-75
2023/04/09 10:28:32;;;;;;;1999.90;999.90;;;;;;;8.22;100.00;98480.09;5131022;27;20019;-74
2023/04/09 10:30:58;;;;;;;1999.90;999.90;;;;;;;8.12;100.00;98474.63;5113583;27;20027;-75
2023/04/09 10:33:25;;;;;;;1999.90;999.90;;;;;;;8.07;100.00;98477.31;5128580;27;20088;-75
2023/04/09 10:35:53;;;;;;;1999.90;999.90;;;;;;;7.99;100.00;98456.03;5131599;27;20502;-75
2023/04/09 10:38:44;;;;;;;1999.90;999.90;;;;;;;7.91;100.00;98464.72;5132416;27;20023;-75
2023/04/09 10:41:26;;;;;;;1999.90;999.90;;;;;;;7.63;100.00;98470.56;5132150;27;20368;-75
2023/04/09 10:43:52;;;;;;;1999.90;999.90;;;;;;;7.50;100.00;98456.34;5131596;27;20064;-75
2023/04/09 10:46:34;;;;;;;1999.90;999.90;;;;;;;7.48;100.00;98465.84;5130852;27;20039;-76
2023/04/09 10:49:34;;;;;;;1999.90;999.90;;;;;;;7.53;100.00;98460.44;5132737;27;20027;-75
2023/04/09 10:52:01;;;;;;;1999.90;999.90;;;;;;;7.57;100.00;98467.00;5121417;27;20050;-75
2023/04/09 10:54:32;;;;;;;1999.90;999.90;;;;;;;7.48;100.00;98465.84;5134556;27;20019;-76
2023/04/09 10:57:14;;;;;;;1999.90;999.90;;;;;;;7.52;100.00;98459.59;5135876;27;20031;-80